Time;durP1;ratioP1;P1;durP2;ratioP2;P2;SDS_P1;SDS_P2;PMS_P1;PMS_P2;Temp;Humidity;BMP_temperature;BMP_pressure;BME280_temperature;BME280_humidity;BME280_pressure;Samples;Min_cycle;Max_cycle;Signal;HPM_P1;HPM_P2
2024/02/10 00:01:21;;;;;;;3.63;2.50;;;11.50;99.90;;;;;;5050748;28;20588;-78
2024/02/10 00:03:47;;;;;;;3.80;2.30;;;11.60;99.90;;;;;;5051401;28;20053;-77
2024/02/10 00:06:16;;;;;;;4.82;2.58;;;11.50;99.90;;;;;;5050934;28;20118;-78
2024/02/10 00:08:43;;;;;;;4.63;2.65;;;11.60;99.90;;;;;;5056362;28;20033;-77
2024/02/10 00:11:10;;;;;;;5.82;2.50;;;11.50;99.90;;;;;;5054386;28;20098;-78
2024/02/10 00:13:39;;;;;;;5.22;1.98;;;11.50;99.90;;;;;;5055384;28;20040;-78
2024/02/10 00:16:05;;;;;;;4.88;2.17;;;11.60;99.90;;;;;;5054975;28;20029;-78
2024/02/10 00:18:31;;;;;;;4.10;2.03;;;11.50;99.90;;;;;;5054999;28;20066;-78
2024/02/10 00:20:57;;;;;;;3.20;1.98;;;11.50;99.90;;;;;;5055332;28;20028;-78
2024/02/10 00:23:24;;;;;;;4.93;1.92;;;11.50;99.90;;;;;;5054472;28;20029;-78
2024/02/10 00:25:52;;;;;;;6.35;3.05;;;11.50;99.90;;;;;;5056136;28;20032;-78
2024/02/10 00:28:19;;;;;;;3.75;2.35;;;11.50;99.90;;;;;;5054313;28;20278;-78
2024/02/10 00:30:44;;;;;;;4.22;2.08;;;11.50;99.90;;;;;;5055042;28;20032;-78
2024/02/10 00:33:10;;;;;;;4.80;2.10;;;11.50;99.90;;;;;;5055448;28;20037;-78
2024/02/10 00:35:35;;;;;;;5.25;2.47;;;11.50;99.90;;;;;;5054985;28;20116;-79
2024/02/10 00:38:01;;;;;;;3.33;1.88;;;11.50;99.90;;;;;;5054256;28;20029;-79
2024/02/10 00:40:26;;;;;;;7.80;2.20;;;11.50;99.90;;;;;;5054641;28;20021;-79
2024/02/10 00:42:53;;;;;;;3.92;1.80;;;11.50;99.90;;;;;;5054451;28;20053;-79
2024/02/10 00:45:19;;;;;;;3.17;1.58;;;11.50;99.90;;;;;;5055154;28;20044;-79
2024/02/10 00:47:45;;;;;;;2.75;1.52;;;11.50;99.90;;;;;;5055920;28;20029;-79
2024/02/10 00:50:16;;;;;;;3.45;1.83;;;11.50;99.90;;;;;;5054225;28;20031;-78
2024/02/10 00:52:46;;;;;;;3.90;1.55;;;11.40;99.90;;;;;;5056095;28;20025;-79
2024/02/10 00:55:12;;;;;;;3.22;1.80;;;11.40;99.90;;;;;;5054265;28;20036;-79
2024/02/10 00:57:40;;;;;;;2.80;1.80;;;11.40;99.90;;;;;;5054530;28;20390;-79
2024/02/10 01:00:11;;;;;;;3.13;1.80;;;11.40;99.90;;;;;;5053478;28;20025;-79
2024/02/10 01:02:37;;;;;;;3.55;1.70;;;11.40;99.90;;;;;;5054800;28;20021;-79
2024/02/10 01:05:05;;;;;;;2.40;1.60;;;11.30;99.90;;;;;;5053486;28;20042;-79
2024/02/10 01:07:30;;;;;;;2.60;1.60;;;11.30;99.90;;;;;;5054576;28;20037;-79
2024/02/10 01:09:56;;;;;;;2.83;1.50;;;11.30;99.90;;;;;;5055146;28;20553;-79
2024/02/10 01:12:22;;;;;;;3.40;2.40;;;11.40;99.90;;;;;;5055024;28;20033;-79
2024/02/10 01:14:47;;;;;;;4.03;1.70;;;11.40;99.90;;;;;;5054257;28;20036;-79
2024/02/10 01:17:13;;;;;;;3.60;1.95;;;11.40;99.90;;;;;;5053622;28;20393;-78
2024/02/10 01:19:51;;;;;;;3.15;2.00;;;11.40;99.90;;;;;;5053207;28;20149;-79
2024/02/10 01:22:22;;;;;;;4.28;1.75;;;11.40;99.90;;;;;;5070431;28;20163;-79
2024/02/10 01:24:53;;;;;;;2.05;1.48;;;11.40;99.90;;;;;;5055061;28;20025;-79
2024/02/10 01:27:26;;;;;;;4.90;2.10;;;11.40;99.90;;;;;;5054520;28;20124;-79
2024/02/10 01:29:55;;;;;;;3.63;2.20;;;11.30;99.90;;;;;;5054592;28;20465;-79
2024/02/10 01:32:23;;;;;;;2.58;1.70;;;11.30;99.90;;;;;;5054198;28;20029;-79
2024/02/10 01:34:50;;;;;;;3.70;2.08;;;11.30;99.90;;;;;;5053731;28;20021;-79
2024/02/10 01:37:19;;;;;;;4.03;1.77;;;11.30;99.90;;;;;;5053009;28;20466;-78
2024/02/10 01:39:49;;;;;;;11.73;1.75;;;11.30;99.90;;;;;;5053692;28;20075;-78
2024/02/10 01:42:37;;;;;;;4.38;1.90;;;11.30;99.90;;;;;;5053967;28;20466;-78
2024/02/10 01:45:08;;;;;;;4.05;2.25;;;11.20;99.90;;;;;;5054500;28;20036;-77
2024/02/10 01:47:38;;;;;;;2.92;2.05;;;11.20;99.90;;;;;;5053231;28;20061;-78
2024/02/10 01:50:08;;;;;;;5.28;1.77;;;11.20;99.90;;;;;;5053034;28;20111;-76
2024/02/10 01:52:38;;;;;;;5.28;2.03;;;11.20;99.90;;;;;;5053183;28;20043;-78
2024/02/10 01:55:05;;;;;;;3.65;1.77;;;11.20;99.90;;;;;;5054018;28;20026;-77
2024/02/10 01:57:32;;;;;;;2.78;1.70;;;11.20;99.90;;;;;;5054091;28;20033;-78
2024/02/10 02:00:01;;;;;;;5.43;2.65;;;11.20;99.90;;;;;;5052944;28;20029;-78
2024/02/10 02:02:31;;;;;;;5.70;2.10;;;11.30;99.90;;;;;;5052573;28;20029;-78
2024/02/10 02:05:05;;;;;;;5.03;2.15;;;11.30;99.90;;;;;;5053276;28;20029;-78
2024/02/10 02:07:31;;;;;;;3.83;2.50;;;11.30;99.90;;;;;;5053292;28;20033;-78
2024/02/10 02:09:59;;;;;;;5.40;2.50;;;11.20;99.90;;;;;;5053072;28;20033;-78
2024/02/10 02:12:24;;;;;;;3.40;1.85;;;11.20;99.90;;;;;;5053649;28;20628;-79
2024/02/10 02:14:50;;;;;;;4.70;2.40;;;11.10;99.90;;;;;;5052760;28;20482;-79
2024/02/10 02:17:17;;;;;;;6.25;2.45;;;11.10;99.90;;;;;;5051591;28;20039;-79
2024/02/10 02:19:44;;;;;;;2.92;2.10;;;11.10;99.90;;;;;;5053025;28;20021;-79
2024/02/10 02:22:10;;;;;;;4.40;2.53;;;11.10;99.90;;;;;;5053492;28;20078;-79
2024/02/10 02:24:35;;;;;;;6.70;2.22;;;11.10;99.90;;;;;;5054111;28;20029;-79
2024/02/10 02:27:02;;;;;;;4.05;2.05;;;11.10;99.90;;;;;;5052626;28;20032;-79
2024/02/10 02:29:28;;;;;;;3.55;1.83;;;11.10;99.90;;;;;;5052877;28;20029;-79
2024/02/10 02:31:59;;;;;;;5.10;2.00;;;11.10;99.90;;;;;;5052799;28;20465;-79
2024/02/10 02:34:33;;;;;;;4.68;2.25;;;11.10;99.90;;;;;;5053390;28;20017;-79
2024/02/10 02:37:02;;;;;;;5.13;2.40;;;11.10;99.90;;;;;;5052369;28;20037;-79
2024/02/10 02:39:28;;;;;;;2.80;1.80;;;11.20;99.90;;;;;;5051335;28;20025;-79
2024/02/10 02:41:59;;;;;;;3.83;2.22;;;11.10;99.90;;;;;;5052257;28;20532;-80
2024/02/10 02:44:26;;;;;;;7.30;2.80;;;11.10;99.90;;;;;;5052215;28;20466;-80
2024/02/10 02:46:51;;;;;;;2.83;2.28;;;11.10;99.90;;;;;;5052909;28;20037;-80
2024/02/10 02:49:17;;;;;;;6.75;2.70;;;11.00;99.90;;;;;;5052865;28;20037;-79
2024/02/10 02:51:42;;;;;;;4.45;2.20;;;11.00;99.90;;;;;;5052215;28;20025;-79
2024/02/10 02:54:11;;;;;;;4.88;2.40;;;11.00;99.90;;;;;;5052098;28;20025;-78
2024/02/10 02:56:36;;;;;;;3.92;2.45;;;11.00;99.90;;;;;;5052783;28;20033;-78
2024/02/10 02:59:02;;;;;;;6.43;2.25;;;11.00;99.90;;;;;;5053209;28;20032;-78
2024/02/10 03:01:30;;;;;;;4.25;2.80;;;11.00;99.90;;;;;;5052521;28;20036;-79
2024/02/10 03:03:56;;;;;;;4.95;2.80;;;11.10;99.90;;;;;;5052976;28;20032;-79
2024/02/10 03:06:24;;;;;;;4.55;2.80;;;11.00;99.90;;;;;;5051445;28;20021;-79
2024/02/10 03:08:49;;;;;;;4.88;2.40;;;11.00;99.90;;;;;;5053411;28;20032;-79
2024/02/10 03:11:19;;;;;;;5.18;2.38;;;10.90;99.90;;;;;;5052758;28;20029;-78
2024/02/10 03:13:49;;;;;;;5.90;2.88;;;10.90;99.90;;;;;;5051990;28;20033;-79
2024/02/10 03:16:17;;;;;;;4.00;2.53;;;10.90;99.90;;;;;;5051971;28;20075;-79
2024/02/10 03:18:45;;;;;;;5.88;2.83;;;11.00;99.90;;;;;;5052959;28;20025;-79
2024/02/10 03:21:22;;;;;;;3.65;2.30;;;11.00;99.90;;;;;;5051577;28;20039;-79
2024/02/10 03:23:48;;;;;;;7.00;2.92;;;11.00;99.90;;;;;;5052177;28;20026;-79
2024/02/10 03:26:13;;;;;;;4.47;2.60;;;10.90;99.90;;;;;;5051097;28;20386;-78
2024/02/10 03:28:39;;;;;;;3.78;2.30;;;10.80;99.90;;;;;;5051546;28;20480;-79
2024/02/10 03:31:05;;;;;;;6.03;3.05;;;10.70;99.90;;;;;;5053048;28;20083;-79
2024/02/10 03:33:32;;;;;;;4.00;2.83;;;10.70;99.90;;;;;;5052141;28;20462;-79
2024/02/10 03:36:03;;;;;;;6.40;2.63;;;10.60;99.90;;;;;;5051642;28;20032;-79
2024/02/10 03:38:28;;;;;;;5.95;2.80;;;10.50;99.90;;;;;;5050903;28;20025;-79
2024/02/10 03:40:54;;;;;;;4.15;2.72;;;10.40;99.90;;;;;;5052780;28;20035;-78
2024/02/10 03:43:27;;;;;;;3.83;2.67;;;10.40;99.90;;;;;;5054596;28;20052;-79
2024/02/10 03:45:54;;;;;;;4.75;2.78;;;10.30;99.90;;;;;;5055888;28;20041;-79
2024/02/10 03:48:19;;;;;;;3.88;2.40;;;10.30;99.90;;;;;;5054969;28;20033;-78
2024/02/10 03:50:45;;;;;;;4.07;2.22;;;10.20;99.90;;;;;;5056620;28;20488;-78
2024/02/10 03:53:11;;;;;;;2.42;2.17;;;10.20;99.90;;;;;;5055644;28;20024;-78
2024/02/10 03:55:38;;;;;;;3.03;1.95;;;10.10;99.90;;;;;;5055169;28;20381;-79
2024/02/10 03:58:04;;;;;;;3.55;2.33;;;10.10;99.90;;;;;;5055628;28;20025;-79
2024/02/10 04:00:36;;;;;;;5.40;2.50;;;10.00;99.90;;;;;;5055871;28;20021;-79
2024/02/10 04:03:02;;;;;;;5.13;2.45;;;10.00;99.90;;;;;;5056520;28;20025;-79
2024/02/10 04:05:33;;;;;;;3.90;2.63;;;10.00;99.90;;;;;;5054732;28;20078;-79
2024/02/10 04:07:59;;;;;;;4.07;2.60;;;9.90;99.90;;;;;;5056596;28;20021;-79
2024/02/10 04:10:24;;;;;;;4.63;2.20;;;9.90;99.90;;;;;;5054381;28;20079;-80
2024/02/10 04:12:50;;;;;;;3.13;2.28;;;9.90;99.90;;;;;;5054446;28;20147;-79
2024/02/10 04:15:15;;;;;;;4.38;2.47;;;9.90;99.90;;;;;;5054650;28;20128;-77
2024/02/10 04:17:52;;;;;;;4.00;2.60;;;9.90;99.90;;;;;;5055232;28;20025;-79
2024/02/10 04:20:19;;;;;;;2.70;2.05;;;9.80;99.90;;;;;;5054534;28;20025;-78
2024/02/10 04:22:49;;;;;;;3.58;1.88;;;9.80;99.90;;;;;;5055224;28;20021;-79
2024/02/10 04:25:15;;;;;;;4.03;1.73;;;9.70;99.90;;;;;;5054124;28;20029;-77
2024/02/10 04:27:41;;;;;;;2.15;1.50;;;9.60;99.90;;;;;;5056171;28;20039;-79
2024/02/10 04:30:07;;;;;;;2.92;1.30;;;9.50;99.90;;;;;;5054712;28;20025;-79
2024/02/10 04:32:33;;;;;;;1.95;1.30;;;9.50;99.90;;;;;;5054135;28;20059;-79
2024/02/10 04:34:59;;;;;;;1.38;1.27;;;9.40;99.90;;;;;;5055806;28;20021;-79
2024/02/10 04:37:25;;;;;;;1.85;1.50;;;9.40;99.90;;;;;;5054005;28;20523;-79
2024/02/10 04:39:50;;;;;;;2.47;1.48;;;9.40;99.90;;;;;;5054860;28;20481;-79
2024/02/10 04:42:16;;;;;;;1.90;1.50;;;9.40;99.90;;;;;;5054116;28;20509;-77
2024/02/10 04:44:48;;;;;;;2.17;1.60;;;9.50;99.90;;;;;;5054549;28;20131;-79
2024/02/10 04:47:15;;;;;;;1.80;1.55;;;9.40;99.90;;;;;;5054424;28;20044;-78
2024/02/10 04:49:41;;;;;;;1.58;1.40;;;9.40;99.90;;;;;;5054324;28;20037;-78
2024/02/10 04:52:06;;;;;;;1.65;1.17;;;9.30;99.90;;;;;;5055286;28;20036;-78
2024/02/10 04:54:32;;;;;;;1.25;1.15;;;9.30;99.90;;;;;;5053761;28;20072;-78
2024/02/10 04:56:58;;;;;;;4.28;1.40;;;9.20;99.90;;;;;;5054303;28;20496;-79
2024/02/10 04:59:27;;;;;;;1.95;1.02;;;9.20;99.90;;;;;;5053794;28;20035;-77
2024/02/10 05:01:53;;;;;;;3.70;1.83;;;9.20;99.90;;;;;;5054477;28;20025;-78
2024/02/10 05:04:18;;;;;;;3.30;1.30;;;9.10;99.90;;;;;;5053531;28;20024;-77
2024/02/10 05:06:45;;;;;;;2.50;1.58;;;9.10;99.90;;;;;;5053945;28;20029;-78
2024/02/10 05:09:14;;;;;;;3.45;2.33;;;9.10;99.90;;;;;;5055239;28;20132;-78
2024/02/10 05:11:41;;;;;;;3.63;1.95;;;9.10;99.90;;;;;;5054366;28;20047;-78
2024/02/10 05:14:10;;;;;;;2.78;1.67;;;9.10;99.90;;;;;;5054149;28;20029;-78
2024/02/10 05:16:36;;;;;;;1.80;1.40;;;9.10;99.90;;;;;;5054297;28;20032;-79
2024/02/10 05:19:02;;;;;;;2.50;1.90;;;9.10;99.90;;;;;;5054781;28;20051;-79
2024/02/10 05:21:28;;;;;;;3.45;2.00;;;9.00;99.90;;;;;;5069785;28;20055;-79
2024/02/10 05:23:59;;;;;;;3.40;2.47;;;9.00;99.90;;;;;;5054267;28;20454;-79
2024/02/10 05:26:33;;;;;;;3.33;2.08;;;9.10;99.90;;;;;;5069784;28;20029;-78
2024/02/10 05:28:58;;;;;;;3.88;2.30;;;9.10;99.90;;;;;;5070417;28;20033;-78
2024/02/10 05:31:25;;;;;;;3.13;2.30;;;9.00;99.90;;;;;;5053976;28;20036;-78
2024/02/10 05:33:53;;;;;;;3.50;2.22;;;9.10;99.90;;;;;;5070158;28;20179;-78
2024/02/10 05:36:18;;;;;;;4.70;2.53;;;9.10;99.90;;;;;;5069986;28;20171;-77
2024/02/10 05:38:47;;;;;;;3.88;2.40;;;9.10;99.90;;;;;;5054354;28;20112;-78
2024/02/10 05:41:12;;;;;;;3.35;2.10;;;9.10;99.90;;;;;;5053665;28;20029;-78
2024/02/10 05:43:38;;;;;;;4.18;2.55;;;9.10;99.90;;;;;;5053984;28;20041;-78
2024/02/10 05:46:06;;;;;;;4.38;2.53;;;9.10;99.90;;;;;;5054608;28;20382;-79
2024/02/10 05:48:32;;;;;;;5.40;2.83;;;9.10;99.90;;;;;;5052566;28;20124;-77
2024/02/10 05:50:59;;;;;;;4.03;2.70;;;9.10;99.90;;;;;;5069712;28;20466;-78
2024/02/10 05:53:26;;;;;;;2.20;1.85;;;9.10;99.90;;;;;;5069366;28;20029;-78
2024/02/10 05:55:52;;;;;;;4.50;2.50;;;9.00;99.90;;;;;;5054502;28;20033;-78
2024/02/10 05:58:23;;;;;;;2.83;2.55;;;9.10;99.90;;;;;;5069577;28;20032;-78
2024/02/10 06:00:51;;;;;;;4.40;2.67;;;9.10;99.90;;;;;;5054359;28;20051;-78
2024/02/10 06:03:17;;;;;;;4.40;2.70;;;9.10;99.90;;;;;;5054296;28;20150;-78
2024/02/10 06:05:43;;;;;;;3.45;2.50;;;9.10;99.90;;;;;;5052022;28;20063;-78
2024/02/10 06:08:12;;;;;;;3.97;2.78;;;9.10;99.90;;;;;;5053709;28;20029;-78
2024/02/10 06:10:39;;;;;;;4.05;2.83;;;9.10;99.90;;;;;;5052872;28;20036;-78
2024/02/10 06:13:04;;;;;;;7.32;3.00;;;9.10;99.90;;;;;;5069778;28;20497;-78
2024/02/10 06:15:30;;;;;;;5.25;2.75;;;9.10;99.90;;;;;;5053680;28;20037;-78
2024/02/10 06:17:57;;;;;;;4.65;3.03;;;9.00;99.90;;;;;;5069730;28;20477;-78
2024/02/10 06:20:23;;;;;;;3.72;2.67;;;9.00;99.90;;;;;;5069455;28;20025;-78
2024/02/10 06:22:52;;;;;;;4.90;3.00;;;9.00;99.90;;;;;;5069628;28;20092;-78
2024/02/10 06:25:26;;;;;;;5.97;2.80;;;9.00;99.90;;;;;;5053991;28;20032;-78
2024/02/10 06:27:56;;;;;;;3.78;2.50;;;9.00;99.90;;;;;;5054382;28;20079;-78
2024/02/10 06:30:27;;;;;;;3.40;2.55;;;9.10;99.90;;;;;;5053514;28;20425;-78
2024/02/10 06:32:55;;;;;;;5.85;2.97;;;9.10;99.90;;;;;;5069812;28;20075;-78
2024/02/10 06:35:21;;;;;;;3.75;3.00;;;9.10;99.90;;;;;;5069079;28;20120;-78
2024/02/10 06:37:49;;;;;;;4.72;2.97;;;9.20;99.90;;;;;;5069862;28;20025;-78
2024/02/10 06:40:15;;;;;;;4.30;2.90;;;9.20;99.90;;;;;;5054056;28;20025;-78
2024/02/10 06:43:00;;;;;;;4.00;2.75;;;9.20;99.90;;;;;;5068498;28;20091;-78
2024/02/10 06:45:26;;;;;;;4.63;2.90;;;9.10;99.90;;;;;;5069195;28;20033;-78
2024/02/10 06:47:51;;;;;;;3.60;2.58;;;9.20;99.90;;;;;;5052691;28;20099;-78
2024/02/10 06:50:27;;;;;;;5.65;2.30;;;9.30;99.90;;;;;;5053502;28;20056;-78
2024/02/10 06:52:54;;;;;;;3.40;2.50;;;9.40;99.90;;;;;;5053752;28;20024;-78
2024/02/10 06:55:27;;;;;;;3.63;2.20;;;9.30;99.90;;;;;;5069554;28;20024;-78
2024/02/10 06:57:55;;;;;;;4.18;2.30;;;9.40;99.90;;;;;;5052985;28;20021;-78
2024/02/10 07:00:22;;;;;;;3.47;2.08;;;9.40;99.90;;;;;;5069008;28;20166;-78
2024/02/10 07:02:49;;;;;;;4.32;2.13;;;9.40;99.90;;;;;;5069014;28;20061;-78
2024/02/10 07:05:16;;;;;;;4.40;2.17;;;9.40;99.90;;;;;;5052730;28;20028;-78
2024/02/10 07:07:43;;;;;;;5.07;2.35;;;9.40;99.90;;;;;;5068064;28;20411;-78
2024/02/10 07:10:13;;;;;;;3.75;2.50;;;9.50;99.90;;;;;;5053433;28;20028;-78
2024/02/10 07:12:42;;;;;;;4.90;2.20;;;9.50;99.90;;;;;;5068259;28;20082;-78
2024/02/10 07:15:17;;;;;;;5.53;2.65;;;9.50;99.90;;;;;;5052974;28;20434;-78
2024/02/10 07:17:44;;;;;;;5.72;2.65;;;9.50;99.90;;;;;;5066955;28;20235;-77
2024/02/10 07:20:18;;;;;;;3.28;2.60;;;9.50;99.90;;;;;;5052012;28;20032;-78
2024/02/10 07:22:50;;;;;;;3.83;2.33;;;9.50;99.90;;;;;;5050143;28;20021;-77
2024/02/10 07:25:16;;;;;;;4.10;2.70;;;9.50;99.90;;;;;;5050218;28;20060;-79
2024/02/10 07:27:46;;;;;;;3.97;2.92;;;9.50;99.90;;;;;;5051691;28;20049;-79
2024/02/10 07:30:15;;;;;;;4.80;2.75;;;9.60;99.90;;;;;;5051150;28;20025;-78
2024/02/10 07:32:41;;;;;;;4.93;3.50;;;9.60;99.90;;;;;;5067715;28;20039;-79
2024/02/10 07:35:07;;;;;;;3.53;2.53;;;9.70;99.90;;;;;;5051110;28;20021;-79
2024/02/10 07:37:33;;;;;;;3.42;2.60;;;9.60;99.90;;;;;;5052103;28;20040;-78
2024/02/10 07:40:03;;;;;;;5.95;3.25;;;9.70;99.90;;;;;;5053033;28;20025;-78
2024/02/10 07:42:29;;;;;;;5.78;3.70;;;9.70;99.90;;;;;;5051578;28;20073;-77
2024/02/10 07:44:55;;;;;;;8.70;4.47;;;9.70;99.90;;;;;;5052600;28;20041;-77
2024/02/10 07:47:24;;;;;;;7.18;3.67;;;9.70;99.90;;;;;;5052534;28;20541;-78
2024/02/10 07:49:54;;;;;;;6.25;4.13;;;9.70;99.90;;;;;;5051591;28;20033;-77
2024/02/10 07:52:20;;;;;;;7.88;4.13;;;9.70;99.90;;;;;;5051730;28;20032;-79
2024/02/10 07:54:47;;;;;;;9.88;4.40;;;9.80;99.90;;;;;;5051061;28;20032;-79
2024/02/10 07:57:19;;;;;;;10.38;3.90;;;9.80;99.90;;;;;;5051694;28;20035;-79
2024/02/10 08:00:03;;;;;;;6.18;4.00;;;9.80;99.90;;;;;;5051230;28;20580;-81
2024/02/10 08:02:29;;;;;;;4.88;3.28;;;9.90;99.90;;;;;;5051191;28;20516;-78
2024/02/10 08:04:56;;;;;;;7.00;3.67;;;9.90;99.90;;;;;;5052008;28;20025;-79
2024/02/10 08:07:32;;;;;;;5.50;3.50;;;9.90;99.90;;;;;;5052920;28;20071;-79
2024/02/10 08:09:59;;;;;;;5.53;3.50;;;9.90;99.90;;;;;;5052925;28;20029;-79
2024/02/10 08:12:29;;;;;;;8.10;3.70;;;9.90;99.90;;;;;;5051171;28;20036;-78
2024/02/10 08:14:57;;;;;;;7.82;4.30;;;9.90;99.90;;;;;;5051463;28;20112;-78
2024/02/10 08:17:26;;;;;;;8.20;4.50;;;9.90;99.90;;;;;;5051542;28;20128;-78
2024/02/10 08:19:56;;;;;;;8.05;4.47;;;10.00;99.90;;;;;;5061584;28;20024;-79
2024/02/10 08:22:23;;;;;;;9.15;5.15;;;9.90;99.90;;;;;;5060107;28;20021;-79
2024/02/10 08:24:51;;;;;;;8.80;4.88;;;9.90;99.90;;;;;;5052050;28;20029;-79
2024/02/10 08:27:18;;;;;;;8.88;4.57;;;9.90;99.90;;;;;;5051667;28;20061;-79
2024/02/10 08:29:45;;;;;;;8.27;4.32;;;10.00;99.90;;;;;;5055517;28;20021;-79
2024/02/10 08:32:13;;;;;;;8.32;4.82;;;10.00;99.90;;;;;;5056300;28;20048;-77
2024/02/10 08:34:45;;;;;;;9.65;4.65;;;10.00;99.90;;;;;;5055171;28;20104;-78
2024/02/10 08:37:17;;;;;;;7.82;4.43;;;10.00;99.90;;;;;;5054569;28;20029;-78
2024/02/10 08:39:44;;;;;;;7.80;4.93;;;10.10;99.90;;;;;;5055409;28;20074;-78
2024/02/10 08:42:13;;;;;;;7.97;5.25;;;10.10;99.90;;;;;;5055523;28;20041;-78
2024/02/10 08:44:40;;;;;;;8.15;4.85;;;10.10;99.90;;;;;;5053933;28;20114;-78
2024/02/10 08:47:06;;;;;;;7.15;4.30;;;10.00;99.90;;;;;;5054572;28;20029;-78
2024/02/10 08:49:36;;;;;;;7.57;5.03;;;10.10;99.90;;;;;;5061942;28;20028;-77
2024/02/10 08:52:07;;;;;;;9.52;5.25;;;10.10;99.90;;;;;;5075032;28;20119;-77
2024/02/10 08:54:32;;;;;;;8.13;5.13;;;10.10;99.90;;;;;;5074661;28;20024;-78
2024/02/10 08:57:00;;;;;;;10.02;6.00;;;10.10;99.90;;;;;;5074167;28;20028;-78
2024/02/10 08:59:31;;;;;;;9.40;5.15;;;10.20;99.90;;;;;;5073950;28;20088;-78
2024/02/10 09:02:04;;;;;;;10.57;6.03;;;10.20;99.90;;;;;;5074170;28;20416;-79
2024/02/10 09:04:30;;;;;;;10.80;5.78;;;10.30;99.90;;;;;;5074648;28;20021;-77
2024/02/10 09:06:56;;;;;;;8.82;5.50;;;10.30;99.90;;;;;;5075087;28;20028;-79
2024/02/10 09:09:22;;;;;;;8.73;5.10;;;10.30;99.90;;;;;;5075419;28;20473;-79
2024/02/10 09:11:48;;;;;;;9.20;4.93;;;10.30;99.90;;;;;;5074745;28;20035;-79
2024/02/10 09:14:13;;;;;;;8.05;5.35;;;10.30;99.90;;;;;;5073821;28;20032;-80
2024/02/10 09:16:39;;;;;;;8.50;5.43;;;10.30;99.90;;;;;;5074586;28;20465;-79
2024/02/10 09:19:05;;;;;;;9.55;5.75;;;10.40;99.90;;;;;;5075176;28;20025;-80
2024/02/10 09:21:31;;;;;;;9.70;5.55;;;10.40;99.90;;;;;;5074139;28;20036;-80
2024/02/10 09:23:59;;;;;;;10.88;5.88;;;10.40;99.90;;;;;;5073637;28;20025;-78
2024/02/10 09:26:25;;;;;;;13.30;6.47;;;10.40;99.90;;;;;;5073281;28;20032;-78
2024/02/10 09:28:51;;;;;;;10.23;5.38;;;10.40;99.90;;;;;;5072728;28;20036;-79
2024/02/10 09:31:16;;;;;;;11.88;6.05;;;10.50;99.90;;;;;;5054087;28;20036;-78
2024/02/10 09:33:43;;;;;;;11.68;6.43;;;10.50;99.90;;;;;;5052103;28;20092;-78
2024/02/10 09:36:12;;;;;;;10.70;6.55;;;10.50;99.90;;;;;;5051791;28;20470;-79
2024/02/10 09:38:41;;;;;;;8.73;5.63;;;10.50;99.90;;;;;;5052191;28;20032;-78
2024/02/10 09:41:11;;;;;;;10.57;6.55;;;10.60;99.90;;;;;;5051596;28;20687;-78
2024/02/10 09:43:39;;;;;;;11.55;7.00;;;10.60;99.90;;;;;;5053004;28;20052;-77
2024/02/10 09:46:10;;;;;;;11.35;6.32;;;10.60;99.90;;;;;;5051121;28;20032;-77
2024/02/10 09:48:42;;;;;;;10.55;6.35;;;10.60;99.90;;;;;;5053429;28;20033;-77
2024/02/10 09:51:08;;;;;;;13.23;6.68;;;10.60;99.90;;;;;;5034423;28;20475;-78
2024/02/10 09:53:34;;;;;;;13.18;6.30;;;10.70;99.90;;;;;;5044545;28;20029;-77
2024/02/10 09:56:00;;;;;;;9.35;6.20;;;10.70;99.90;;;;;;5051704;28;20040;-77
2024/02/10 09:58:27;;;;;;;10.23;6.10;;;10.80;99.90;;;;;;5051192;28;20025;-78
2024/02/10 10:00:53;;;;;;;11.05;6.18;;;10.70;99.90;;;;;;5052603;28;20033;-77
2024/02/10 10:03:20;;;;;;;10.95;6.35;;;10.80;99.90;;;;;;5052293;28;20029;-76
2024/02/10 10:05:47;;;;;;;13.23;6.53;;;10.80;99.90;;;;;;5051524;28;20024;-76
2024/02/10 10:08:13;;;;;;;11.90;6.80;;;10.80;99.90;;;;;;5051263;28;20060;-75
2024/02/10 10:10:39;;;;;;;12.10;6.35;;;10.80;99.90;;;;;;5052185;28;20024;-76
2024/02/10 10:13:09;;;;;;;10.10;6.60;;;10.80;99.90;;;;;;5068954;28;20039;-76
2024/02/10 10:15:36;;;;;;;11.05;6.45;;;10.80;99.90;;;;;;5051778;28;20120;-76
2024/02/10 10:18:03;;;;;;;12.73;6.88;;;10.90;99.90;;;;;;5052326;28;20086;-76
2024/02/10 10:20:32;;;;;;;11.15;6.20;;;11.00;99.90;;;;;;5066702;28;20024;-75
2024/02/10 10:22:58;;;;;;;11.48;5.72;;;11.00;99.90;;;;;;5054597;28;20436;-76
2024/02/10 10:25:25;;;;;;;9.23;5.97;;;11.10;99.90;;;;;;5051145;28;20025;-79
2024/02/10 10:27:51;;;;;;;13.27;6.10;;;11.20;99.90;;;;;;5050270;28;20043;-80
2024/02/10 10:30:21;;;;;;;10.60;5.60;;;11.30;99.90;;;;;;5067611;28;20025;-77
2024/02/10 10:32:52;;;;;;;8.30;5.55;;;11.40;99.90;;;;;;5065981;28;20501;-78
2024/02/10 10:35:19;;;;;;;7.50;4.78;;;11.40;99.90;;;;;;5050929;28;20039;-76
2024/02/10 10:37:45;;;;;;;11.60;5.50;;;11.50;99.90;;;;;;5065770;28;20074;-78
2024/02/10 10:40:13;;;;;;;10.85;5.03;;;11.60;99.90;;;;;;5066248;28;20017;-77
2024/02/10 10:42:41;;;;;;;7.75;5.65;;;11.70;99.90;;;;;;5064890;28;20052;-76
2024/02/10 10:45:09;;;;;;;8.45;5.15;;;11.70;99.90;;;;;;5066344;28;20033;-77
2024/02/10 10:47:39;;;;;;;8.90;5.70;;;11.70;99.90;;;;;;5049411;28;20171;-77
2024/02/10 10:50:05;;;;;;;8.27;5.38;;;11.70;99.90;;;;;;5066435;28;20052;-76
2024/02/10 10:52:33;;;;;;;9.18;5.20;;;11.70;99.90;;;;;;5049031;28;20036;-76
2024/02/10 10:54:59;;;;;;;6.72;4.63;;;11.80;99.90;;;;;;5049785;28;20040;-77
2024/02/10 10:57:28;;;;;;;9.20;5.18;;;11.80;99.90;;;;;;5049528;28;20037;-77
2024/02/10 11:00:12;;;;;;;8.77;4.78;;;11.70;99.90;;;;;;5048670;28;20048;-76
2024/02/10 11:02:41;;;;;;;7.65;4.93;;;11.80;99.90;;;;;;5049548;28;20152;-77
2024/02/10 11:05:12;;;;;;;8.38;4.88;;;11.80;99.90;;;;;;5051850;28;20025;-80
2024/02/10 11:07:42;;;;;;;8.07;5.15;;;11.80;99.90;;;;;;5051877;28;20021;-79
2024/02/10 11:10:09;;;;;;;7.88;5.20;;;11.90;99.90;;;;;;5050029;28;21088;-77
2024/02/10 11:12:35;;;;;;;9.43;5.28;;;12.00;99.90;;;;;;5049385;28;20096;-77
2024/02/10 11:15:01;;;;;;;10.05;5.35;;;11.90;99.90;;;;;;5049518;28;20051;-77
2024/02/10 11:17:30;;;;;;;8.82;5.18;;;12.00;99.90;;;;;;5049637;28;20039;-77
2024/02/10 11:19:59;;;;;;;8.77;5.80;;;12.00;99.90;;;;;;5049583;28;20021;-77
2024/02/10 11:22:26;;;;;;;7.95;5.05;;;12.00;99.90;;;;;;5041988;28;20025;-77
2024/02/10 11:24:56;;;;;;;11.18;5.80;;;12.00;99.90;;;;;;5032710;28;20029;-76
2024/02/10 11:27:25;;;;;;;12.45;5.43;;;12.00;99.90;;;;;;5030944;28;20095;-77
2024/02/10 11:29:58;;;;;;;9.77;5.68;;;12.00;99.90;;;;;;5049425;28;20024;-79
2024/02/10 11:32:27;;;;;;;8.40;5.07;;;12.00;99.90;;;;;;5051930;28;20025;-78
2024/02/10 11:34:52;;;;;;;10.40;5.18;;;12.00;99.90;;;;;;5066870;28;20040;-79
2024/02/10 11:37:18;;;;;;;9.13;5.80;;;11.90;99.90;;;;;;5050221;28;20029;-80
2024/02/10 11:39:44;;;;;;;7.75;5.47;;;11.90;99.90;;;;;;5066745;28;20108;-79
2024/02/10 11:42:11;;;;;;;9.55;6.13;;;11.90;99.90;;;;;;5051921;28;20123;-79
2024/02/10 11:44:37;;;;;;;11.43;6.30;;;12.00;99.90;;;;;;5051429;28;20021;-78
2024/02/10 11:47:04;;;;;;;9.48;5.60;;;12.00;99.90;;;;;;5067644;28;20037;-78
2024/02/10 11:49:30;;;;;;;8.18;5.40;;;12.00;99.90;;;;;;5050250;28;20030;-75
2024/02/10 11:51:57;;;;;;;10.10;5.60;;;12.00;99.90;;;;;;5067351;28;20071;-77
2024/02/10 11:54:27;;;;;;;9.38;5.30;;;12.00;99.90;;;;;;5067227;28;20037;-77
2024/02/10 11:56:53;;;;;;;9.65;5.90;;;12.00;99.90;;;;;;5049663;28;20041;-76
2024/02/10 11:59:19;;;;;;;9.35;5.68;;;12.00;99.90;;;;;;5067344;28;20036;-77
2024/02/10 12:01:44;;;;;;;10.63;5.72;;;12.10;99.90;;;;;;5033255;28;20017;-76
2024/02/10 12:04:18;;;;;;;9.70;5.80;;;12.10;99.90;;;;;;5053778;28;20021;-76
2024/02/10 12:06:50;;;;;;;14.25;5.72;;;12.10;99.90;;;;;;5070303;28;20037;-77
2024/02/10 12:09:17;;;;;;;;;;;12.10;99.90;;;;;;5055980;28;20025;-76
2024/02/10 12:11:43;;;;;;;11.48;6.25;;;12.10;99.90;;;;;;5070225;28;19952;-76
2024/02/10 12:14:13;;;;;;;10.43;6.32;;;12.20;99.90;;;;;;5071016;28;20059;-77
2024/02/10 12:16:39;;;;;;;10.02;6.07;;;12.20;99.90;;;;;;5053625;28;20025;-76
2024/02/10 12:19:07;;;;;;;10.40;6.45;;;12.20;99.90;;;;;;5074706;28;20385;-77
2024/02/10 12:21:32;;;;;;;10.13;6.00;;;12.30;99.90;;;;;;5054929;28;20029;-77
2024/02/10 12:24:00;;;;;;;9.77;6.07;;;12.40;99.90;;;;;;5054040;28;20036;-76
2024/02/10 12:26:25;;;;;;;10.05;5.97;;;12.50;99.90;;;;;;5054871;28;20029;-76
2024/02/10 12:28:51;;;;;;;8.60;5.47;;;12.50;99.90;;;;;;5070146;28;20492;-76
2024/02/10 12:31:20;;;;;;;9.05;5.47;;;12.60;99.90;;;;;;5054089;28;20025;-76
2024/02/10 12:33:55;;;;;;;10.50;5.78;;;12.60;99.90;;;;;;5053828;28;20049;-77
2024/02/10 12:36:24;;;;;;;11.15;6.60;;;12.70;99.90;;;;;;5055380;28;20021;-78
2024/02/10 12:38:55;;;;;;;10.27;5.78;;;12.70;99.90;;;;;;5070454;28;20029;-79
2024/02/10 12:41:22;;;;;;;9.10;5.65;;;12.70;99.90;;;;;;5055269;28;20029;-78
2024/02/10 12:43:48;;;;;;;10.93;5.93;;;12.70;99.90;;;;;;5053510;28;20331;-79
2024/02/10 12:46:14;;;;;;;10.93;6.25;;;12.80;99.90;;;;;;5055238;28;20032;-79
2024/02/10 12:48:40;;;;;;;9.15;5.43;;;12.80;99.90;;;;;;5054626;28;20389;-77
2024/02/10 12:51:06;;;;;;;10.82;5.63;;;12.90;99.90;;;;;;5060647;28;20032;-78